sensor_id;sensor_type;location;lat;lon;timestamp;pressure;altitude;pressure_sealevel;temperature;humidity
53262;BME280;39658;51.090;-1.786;2023-05-28T00:00:12;102440.31;;;9.31;100.00
53262;BME280;39658;51.090;-1.786;2023-05-28T00:02:38;102431.66;;;9.28;100.00
53262;BME280;39658;51.090;-1.786;2023-05-28T00:05:06;102421.19;;;9.26;100.00
53262;BME280;39658;51.090;-1.786;2023-05-28T00:07:34;102389.81;;;9.20;100.00
53262;BME280;39658;51.090;-1.786;2023-05-28T00:10:01;102386.34;;;9.18;100.00
53262;BME280;39658;51.090;-1.786;2023-05-28T00:12:28;102370.66;;;9.15;100.00
53262;BME280;39658;51.090;-1.786;2023-05-28T00:14:55;102358.53;;;9.11;100.00
53262;BME280;39658;51.090;-1.786;2023-05-28T00:17:21;102355.06;;;9.09;100.00
53262;BME280;39658;51.090;-1.786;2023-05-28T00:19:48;102340.28;;;9.06;100.00
53262;BME280;39658;51.090;-1.786;2023-05-28T00:22:15;102342.97;;;9.05;100.00
53262;BME280;39658;51.090;-1.786;2023-05-28T00:24:43;102344.91;;;9.00;100.00
53262;BME280;39658;51.090;-1.786;2023-05-28T00:27:10;102336.31;;;8.93;100.00
53262;BME280;39658;51.090;-1.786;2023-05-28T00:29:37;102331.22;;;8.88;100.00
53262;BME280;39658;51.090;-1.786;2023-05-28T00:32:04;102317.31;;;8.85;100.00
53262;BME280;39658;51.090;-1.786;2023-05-28T00:34:31;102301.78;;;8.77;100.00
53262;BME280;39658;51.090;-1.786;2023-05-28T00:36:57;102289.69;;;8.71;100.00
53262;BME280;39658;51.090;-1.786;2023-05-28T00:39:24;102279.31;;;8.67;100.00
53262;BME280;39658;51.090;-1.786;2023-05-28T00:42:00;102266.31;;;8.62;100.00
53262;BME280;39658;51.090;-1.786;2023-05-28T00:44:28;102249.00;;;8.56;100.00
53262;BME280;39658;51.090;-1.786;2023-05-28T00:46:56;102231.66;;;8.51;100.00
53262;BME280;39658;51.090;-1.786;2023-05-28T00:49:25;102206.41;;;8.45;100.00
53262;BME280;39658;51.090;-1.786;2023-05-28T00:51:52;102189.06;;;8.39;100.00
53262;BME280;39658;51.090;-1.786;2023-05-28T00:54:20;102170.88;;;8.33;100.00
53262;BME280;39658;51.090;-1.786;2023-05-28T00:56:47;102153.59;;;8.26;100.00
53262;BME280;39658;51.090;-1.786;2023-05-28T00:59:15;102151.13;;;8.21;100.00
53262;BME280;39658;51.090;-1.786;2023-05-28T01:01:42;102145.88;;;8.21;100.00
53262;BME280;39658;51.090;-1.786;2023-05-28T01:04:09;102132.72;;;8.21;100.00
53262;BME280;39658;51.090;-1.786;2023-05-28T01:06:37;102129.31;;;8.19;100.00
53262;BME280;39658;51.090;-1.786;2023-05-28T01:09:05;102120.56;;;8.19;100.00
53262;BME280;39658;51.090;-1.786;2023-05-28T01:11:32;102105.66;;;8.19;100.00
53262;BME280;39658;51.090;-1.786;2023-05-28T01:13:59;102097.78;;;8.19;100.00
53262;BME280;39658;51.090;-1.786;2023-05-28T01:16:28;102083.78;;;8.19;100.00
53262;BME280;39658;51.090;-1.786;2023-05-28T01:18:55;102076.81;;;8.18;100.00
53262;BME280;39658;51.090;-1.786;2023-05-28T01:21:23;102066.41;;;8.15;100.00
53262;BME280;39658;51.090;-1.786;2023-05-28T01:23:52;102049.84;;;8.13;100.00
53262;BME280;39658;51.090;-1.786;2023-05-28T01:26:19;102045.59;;;8.08;100.00
53262;BME280;39658;51.090;-1.786;2023-05-28T01:28:47;102038.63;;;8.07;100.00
53262;BME280;39658;51.090;-1.786;2023-05-28T01:31:15;102029.16;;;8.03;100.00
53262;BME280;39658;51.090;-1.786;2023-05-28T01:33:42;102033.56;;;8.01;100.00
53262;BME280;39658;51.090;-1.786;2023-05-28T01:36:15;102029.34;;;7.97;100.00
53262;BME280;39658;51.090;-1.786;2023-05-28T01:38:46;102018.03;;;7.95;100.00
53262;BME280;39658;51.090;-1.786;2023-05-28T01:41:15;102012.13;;;7.88;100.00
53262;BME280;39658;51.090;-1.786;2023-05-28T01:43:43;102014.72;;;7.90;100.00
53262;BME280;39658;51.090;-1.786;2023-05-28T01:46:11;102011.19;;;7.91;100.00
53262;BME280;39658;51.090;-1.786;2023-05-28T01:48:38;102021.63;;;7.93;100.00
53262;BME280;39658;51.090;-1.786;2023-05-28T01:51:05;102022.59;;;7.90;100.00
53262;BME280;39658;51.090;-1.786;2023-05-28T01:53:33;102013.91;;;7.88;100.00
53262;BME280;39658;51.090;-1.786;2023-05-28T01:56:00;102025.38;;;7.85;100.00
53262;BME280;39658;51.090;-1.786;2023-05-28T01:58:28;102023.69;;;7.83;100.00
53262;BME280;39658;51.090;-1.786;2023-05-28T02:01:03;102025.47;;;7.82;100.00
53262;BME280;39658;51.090;-1.786;2023-05-28T02:03:36;102019.63;;;7.74;100.00
53262;BME280;39658;51.090;-1.786;2023-05-28T02:06:03;102020.63;;;7.70;100.00
53262;BME280;39658;51.090;-1.786;2023-05-28T02:08:29;102017.34;;;7.63;100.00
53262;BME280;39658;51.090;-1.786;2023-05-28T02:10:56;102008.69;;;7.60;100.00
53262;BME280;39658;51.090;-1.786;2023-05-28T02:13:23;102007.84;;;7.59;100.00
53262;BME280;39658;51.090;-1.786;2023-05-28T02:15:54;102007.91;;;7.58;100.00
53262;BME280;39658;51.090;-1.786;2023-05-28T02:18:21;102009.63;;;7.59;100.00
53262;BME280;39658;51.090;-1.786;2023-05-28T02:20:47;102001.84;;;7.55;100.00
53262;BME280;39658;51.090;-1.786;2023-05-28T02:23:14;101999.34;;;7.52;100.00
53262;BME280;39658;51.090;-1.786;2023-05-28T02:25:41;102004.69;;;7.49;100.00
53262;BME280;39658;51.090;-1.786;2023-05-28T02:28:09;101996.06;;;7.46;100.00
53262;BME280;39658;51.090;-1.786;2023-05-28T02:30:36;101992.75;;;7.39;100.00
53262;BME280;39658;51.090;-1.786;2023-05-28T02:33:04;101986.75;;;7.35;100.00
53262;BME280;39658;51.090;-1.786;2023-05-28T02:35:31;101985.13;;;7.31;100.00
53262;BME280;39658;51.090;-1.786;2023-05-28T02:37:58;101993.00;;;7.31;100.00
53262;BME280;39658;51.090;-1.786;2023-05-28T02:40:25;101987.94;;;7.25;100.00
53262;BME280;39658;51.090;-1.786;2023-05-28T02:42:51;101999.47;;;7.21;100.00
53262;BME280;39658;51.090;-1.786;2023-05-28T02:45:18;101996.19;;;7.13;100.00
53262;BME280;39658;51.090;-1.786;2023-05-28T02:47:45;101995.53;;;7.06;100.00
53262;BME280;39658;51.090;-1.786;2023-05-28T02:50:13;101988.81;;;6.97;100.00
53262;BME280;39658;51.090;-1.786;2023-05-28T02:52:40;101990.66;;;6.94;100.00
53262;BME280;39658;51.090;-1.786;2023-05-28T02:55:07;101991.56;;;6.93;100.00
53262;BME280;39658;51.090;-1.786;2023-05-28T02:57:34;101982.06;;;6.90;100.00
53262;BME280;39658;51.090;-1.786;2023-05-28T03:00:00;101981.13;;;6.91;100.00
53262;BME280;39658;51.090;-1.786;2023-05-28T03:02:27;101974.97;;;6.92;100.00
53262;BME280;39658;51.090;-1.786;2023-05-28T03:04:54;101975.84;;;6.93;100.00
53262;BME280;39658;51.090;-1.786;2023-05-28T03:07:23;101976.06;;;6.85;100.00
53262;BME280;39658;51.090;-1.786;2023-05-28T03:09:50;101970.22;;;6.77;100.00
53262;BME280;39658;51.090;-1.786;2023-05-28T03:12:17;101973.88;;;6.71;100.00
53262;BME280;39658;51.090;-1.786;2023-05-28T03:14:43;101968.78;;;6.67;100.00
53262;BME280;39658;51.090;-1.786;2023-05-28T03:17:10;101965.38;;;6.63;100.00
53262;BME280;39658;51.090;-1.786;2023-05-28T03:19:37;101969.78;;;6.62;100.00
53262;BME280;39658;51.090;-1.786;2023-05-28T03:22:04;101956.75;;;6.59;100.00
53262;BME280;39658;51.090;-1.786;2023-05-28T03:24:32;101948.22;;;6.53;100.00
53262;BME280;39658;51.090;-1.786;2023-05-28T03:27:01;101956.19;;;6.50;100.00
53262;BME280;39658;51.090;-1.786;2023-05-28T03:29:27;101954.53;;;6.45;100.00
53262;BME280;39658;51.090;-1.786;2023-05-28T03:31:54;101945.91;;;6.42;100.00
53262;BME280;39658;51.090;-1.786;2023-05-28T03:34:21;101937.13;;;6.43;100.00
53262;BME280;39658;51.090;-1.786;2023-05-28T03:36:50;101936.25;;;6.44;100.00
53262;BME280;39658;51.090;-1.786;2023-05-28T03:39:17;101934.47;;;6.44;100.00
53262;BME280;39658;51.090;-1.786;2023-05-28T03:41:45;101924.88;;;6.45;100.00
53262;BME280;39658;51.090;-1.786;2023-05-28T03:44:12;101925.81;;;6.42;100.00
53262;BME280;39658;51.090;-1.786;2023-05-28T03:46:39;101926.69;;;6.41;100.00
53262;BME280;39658;51.090;-1.786;2023-05-28T03:49:06;101918.00;;;6.41;100.00
53262;BME280;39658;51.090;-1.786;2023-05-28T03:51:32;101910.09;;;6.42;100.00
53262;BME280;39658;51.090;-1.786;2023-05-28T03:53:59;101913.56;;;6.43;100.00
53262;BME280;39658;51.090;-1.786;2023-05-28T03:56:26;101907.47;;;6.42;100.00
53262;BME280;39658;51.090;-1.786;2023-05-28T03:58:54;101904.91;;;6.41;100.00
53262;BME280;39658;51.090;-1.786;2023-05-28T04:01:21;101917.94;;;6.42;100.00
53262;BME280;39658;51.090;-1.786;2023-05-28T04:03:48;101910.19;;;6.39;100.00
53262;BME280;39658;51.090;-1.786;2023-05-28T04:06:15;101911.91;;;6.40;100.00
53262;BME280;39658;51.090;-1.786;2023-05-28T04:08:42;101914.56;;;6.39;100.00
53262;BME280;39658;51.090;-1.786;2023-05-28T04:11:08;101911.94;;;6.39;100.00
53262;BME280;39658;51.090;-1.786;2023-05-28T04:13:35;101906.56;;;6.43;100.00
53262;BME280;39658;51.090;-1.786;2023-05-28T04:16:03;101902.19;;;6.44;100.00
53262;BME280;39658;51.090;-1.786;2023-05-28T04:18:33;101897.84;;;6.43;100.00
53262;BME280;39658;51.090;-1.786;2023-05-28T04:21:00;101899.59;;;6.42;100.00
53262;BME280;39658;51.090;-1.786;2023-05-28T04:23:27;101903.22;;;6.38;100.00
53262;BME280;39658;51.090;-1.786;2023-05-28T04:25:53;101894.47;;;6.39;100.00
53262;BME280;39658;51.090;-1.786;2023-05-28T04:28:21;101892.72;;;6.38;100.00
53262;BME280;39658;51.090;-1.786;2023-05-28T04:30:49;101893.66;;;6.37;100.00
53262;BME280;39658;51.090;-1.786;2023-05-28T04:33:19;101883.19;;;6.37;100.00
53262;BME280;39658;51.090;-1.786;2023-05-28T04:35:46;101897.16;;;6.36;100.00
53262;BME280;39658;51.090;-1.786;2023-05-28T04:38:13;101885.81;;;6.37;100.00
53262;BME280;39658;51.090;-1.786;2023-05-28T04:40:39;101891.00;;;6.39;100.00
53262;BME280;39658;51.090;-1.786;2023-05-28T04:43:06;101891.78;;;6.41;100.00
53262;BME280;39658;51.090;-1.786;2023-05-28T04:45:34;101883.75;;;6.47;100.00
53262;BME280;39658;51.090;-1.786;2023-05-28T04:48:01;101891.56;;;6.49;100.00
53262;BME280;39658;51.090;-1.786;2023-05-28T04:50:29;101882.72;;;6.53;100.00
53262;BME280;39658;51.090;-1.786;2023-05-28T04:52:56;101885.16;;;6.59;100.00
53262;BME280;39658;51.090;-1.786;2023-05-28T04:55:23;101890.25;;;6.63;100.00
53262;BME280;39658;51.090;-1.786;2023-05-28T04:57:49;101884.00;;;6.68;100.00
53262;BME280;39658;51.090;-1.786;2023-05-28T05:00:17;101882.84;;;6.76;100.00
53262;BME280;39658;51.090;-1.786;2023-05-28T05:02:44;101877.47;;;6.81;100.00
53262;BME280;39658;51.090;-1.786;2023-05-28T05:05:11;101872.03;;;6.87;100.00
53262;BME280;39658;51.090;-1.786;2023-05-28T05:07:39;101868.34;;;6.93;100.00
53262;BME280;39658;51.090;-1.786;2023-05-28T05:10:07;101870.75;;;6.99;100.00
53262;BME280;39658;51.090;-1.786;2023-05-28T05:12:34;101872.13;;;7.11;100.00
53262;BME280;39658;51.090;-1.786;2023-05-28T05:15:01;101874.50;;;7.18;100.00
53262;BME280;39658;51.090;-1.786;2023-05-28T05:17:29;101871.53;;;7.29;100.00
53262;BME280;39658;51.090;-1.786;2023-05-28T05:19:56;101871.25;;;7.37;100.00
53262;BME280;39658;51.090;-1.786;2023-05-28T05:22:22;101872.69;;;7.47;100.00
53262;BME280;39658;51.090;-1.786;2023-05-28T05:24:50;101877.53;;;7.58;100.00
53262;BME280;39658;51.090;-1.786;2023-05-28T05:27:17;101869.31;;;7.67;100.00
53262;BME280;39658;51.090;-1.786;2023-05-28T05:29:44;101885.56;;;7.79;100.00
53262;BME280;39658;51.090;-1.786;2023-05-28T05:32:11;101881.63;;;7.90;100.00
53262;BME280;39658;51.090;-1.786;2023-05-28T05:34:37;101878.50;;;8.04;100.00
53262;BME280;39658;51.090;-1.786;2023-05-28T05:37:04;101879.84;;;8.16;100.00
53262;BME280;39658;51.090;-1.786;2023-05-28T05:39:31;101878.69;;;8.23;100.00
53262;BME280;39658;51.090;-1.786;2023-05-28T05:41:59;101890.56;;;8.34;100.00
53262;BME280;39658;51.090;-1.786;2023-05-28T05:44:26;101891.09;;;8.42;100.00
53262;BME280;39658;51.090;-1.786;2023-05-28T05:46:53;101903.75;;;8.56;100.00
53262;BME280;39658;51.090;-1.786;2023-05-28T05:49:20;101904.28;;;8.66;100.00
53262;BME280;39658;51.090;-1.786;2023-05-28T05:51:47;101913.50;;;8.76;100.00
53262;BME280;39658;51.090;-1.786;2023-05-28T05:54:13;101921.84;;;8.87;100.00
53262;BME280;39658;51.090;-1.786;2023-05-28T05:56:40;101924.03;;;8.98;100.00
53262;BME280;39658;51.090;-1.786;2023-05-28T05:59:08;101932.28;;;9.11;100.00
53262;BME280;39658;51.090;-1.786;2023-05-28T06:01:35;101925.72;;;9.21;100.00
53262;BME280;39658;51.090;-1.786;2023-05-28T06:04:02;101937.53;;;9.33;100.00
53262;BME280;39658;51.090;-1.786;2023-05-28T06:06:28;101932.53;;;9.47;100.00
53262;BME280;39658;51.090;-1.786;2023-05-28T06:08:55;101933.81;;;9.59;100.00
53262;BME280;39658;51.090;-1.786;2023-05-28T06:11:22;101947.16;;;9.75;100.00
53262;BME280;39658;51.090;-1.786;2023-05-28T06:13:50;101947.47;;;9.88;100.00
53262;BME280;39658;51.090;-1.786;2023-05-28T06:16:19;101952.16;;;10.02;100.00
53262;BME280;39658;51.090;-1.786;2023-05-28T06:18:46;101964.66;;;10.17;100.00
53262;BME280;39658;51.090;-1.786;2023-05-28T06:21:13;101976.56;;;10.26;100.00
53262;BME280;39658;51.090;-1.786;2023-05-28T06:23:40;101992.00;;;10.35;100.00
53262;BME280;39658;51.090;-1.786;2023-05-28T06:26:07;102014.34;;;10.47;100.00
53262;BME280;39658;51.090;-1.786;2023-05-28T06:28:34;102024.25;;;10.61;100.00
53262;BME280;39658;51.090;-1.786;2023-05-28T06:31:00;102036.03;;;10.73;100.00
53262;BME280;39658;51.090;-1.786;2023-05-28T06:33:29;102056.50;;;10.87;100.00
53262;BME280;39658;51.090;-1.786;2023-05-28T06:35:56;102066.34;;;11.02;100.00
53262;BME280;39658;51.090;-1.786;2023-05-28T06:38:23;102083.91;;;11.22;100.00
53262;BME280;39658;51.090;-1.786;2023-05-28T06:40:49;102084.56;;;11.45;100.00
53262;BME280;39658;51.090;-1.786;2023-05-28T06:43:16;102106.19;;;11.72;100.00
53262;BME280;39658;51.090;-1.786;2023-05-28T06:45:43;102131.81;;;12.07;100.00
53262;BME280;39658;51.090;-1.786;2023-05-28T06:48:10;102166.94;;;12.28;100.00
53262;BME280;39658;51.090;-1.786;2023-05-28T06:50:38;102212.66;;;12.47;100.00
53262;BME280;39658;51.090;-1.786;2023-05-28T06:53:05;102240.91;;;12.64;100.00
53262;BME280;39658;51.090;-1.786;2023-05-28T06:55:33;102269.03;;;12.84;100.00
53262;BME280;39658;51.090;-1.786;2023-05-28T06:57:59;102306.88;;;13.04;100.00
53262;BME280;39658;51.090;-1.786;2023-05-28T07:00:26;102336.06;;;13.20;100.00
53262;BME280;39658;51.090;-1.786;2023-05-28T07:02:53;102372.84;;;13.43;100.00
53262;BME280;39658;51.090;-1.786;2023-05-28T07:05:20;102399.31;;;13.61;100.00
53262;BME280;39658;51.090;-1.786;2023-05-28T07:07:48;102424.09;;;13.77;100.00
53262;BME280;39658;51.090;-1.786;2023-05-28T07:10:15;102442.44;;;13.98;100.00
53262;BME280;39658;51.090;-1.786;2023-05-28T07:12:42;102464.66;;;14.13;100.00
53262;BME280;39658;51.090;-1.786;2023-05-28T07:15:09;102478.84;;;14.29;100.00
53262;BME280;39658;51.090;-1.786;2023-05-28T07:17:36;102509.75;;;14.46;100.00
53262;BME280;39658;51.090;-1.786;2023-05-28T07:20:03;102544.63;;;14.56;100.00
53262;BME280;39658;51.090;-1.786;2023-05-28T07:22:31;102577.31;;;14.57;100.00
53262;BME280;39658;51.090;-1.786;2023-05-28T07:24:59;102607.13;;;14.79;100.00
53262;BME280;39658;51.090;-1.786;2023-05-28T07:27:26;102622.25;;;14.95;100.00
53262;BME280;39658;51.090;-1.786;2023-05-28T07:29:54;102666.38;;;15.13;100.00
53262;BME280;39658;51.090;-1.786;2023-05-28T07:32:20;102685.19;;;15.26;100.00
53262;BME280;39658;51.090;-1.786;2023-05-28T07:34:47;102697.47;;;15.44;100.00
53262;BME280;39658;51.090;-1.786;2023-05-28T07:37:14;102698.84;;;15.68;100.00
53262;BME280;39658;51.090;-1.786;2023-05-28T07:39:41;102742.25;;;15.84;100.00
53262;BME280;39658;51.090;-1.786;2023-05-28T07:42:09;102757.94;;;16.05;100.00
53262;BME280;39658;51.090;-1.786;2023-05-28T07:44:36;102771.94;;;16.24;100.00
53262;BME280;39658;51.090;-1.786;2023-05-28T07:47:03;102798.69;;;16.37;100.00
53262;BME280;39658;51.090;-1.786;2023-05-28T07:49:30;102820.66;;;16.57;100.00
53262;BME280;39658;51.090;-1.786;2023-05-28T07:51:56;102828.69;;;16.71;100.00
53262;BME280;39658;51.090;-1.786;2023-05-28T07:54:23;102815.41;;;17.01;100.00
53262;BME280;39658;51.090;-1.786;2023-05-28T07:56:50;102802.56;;;17.22;100.00
53262;BME280;39658;51.090;-1.786;2023-05-28T07:59:18;102802.00;;;17.32;100.00
53262;BME280;39658;51.090;-1.786;2023-05-28T08:01:46;102793.59;;;17.52;100.00
53262;BME280;39658;51.090;-1.786;2023-05-28T08:04:13;102776.34;;;17.72;100.00
53262;BME280;39658;51.090;-1.786;2023-05-28T08:06:40;102743.00;;;17.80;100.00
53262;BME280;39658;51.090;-1.786;2023-05-28T08:09:07;102722.28;;;17.83;100.00
53262;BME280;39658;51.090;-1.786;2023-05-28T08:11:34;102697.81;;;17.91;100.00
53262;BME280;39658;51.090;-1.786;2023-05-28T08:14:00;102663.19;;;18.17;100.00
53262;BME280;39658;51.090;-1.786;2023-05-28T08:16:29;102624.47;;;18.37;100.00
53262;BME280;39658;51.090;-1.786;2023-05-28T08:18:55;102562.19;;;18.49;100.00
53262;BME280;39658;51.090;-1.786;2023-05-28T08:21:22;102621.22;;;18.83;100.00
53262;BME280;39658;51.090;-1.786;2023-05-28T08:23:49;102402.09;;;19.07;100.00
53262;BME280;39658;51.090;-1.786;2023-05-28T08:26:16;102305.03;;;19.29;100.00
53262;BME280;39658;51.090;-1.786;2023-05-28T08:28:42;101480.25;;;19.43;100.00
53262;BME280;39658;51.090;-1.786;2023-05-28T08:31:09;100452.19;;;19.47;100.00
53262;BME280;39658;51.090;-1.786;2023-05-28T08:33:37;101122.94;;;19.60;100.00
53262;BME280;39658;51.090;-1.786;2023-05-28T08:36:04;101318.19;;;19.60;100.00
53262;BME280;39658;51.090;-1.786;2023-05-28T08:38:31;101349.59;;;19.58;100.00
53262;BME280;39658;51.090;-1.786;2023-05-28T08:40:59;101364.53;;;19.51;100.00
53262;BME280;39658;51.090;-1.786;2023-05-28T08:43:26;101361.72;;;19.52;100.00
53262;BME280;39658;51.090;-1.786;2023-05-28T08:45:53;101372.81;;;19.58;100.00
53262;BME280;39658;51.090;-1.786;2023-05-28T08:48:21;101390.41;;;19.60;100.00
53262;BME280;39658;51.090;-1.786;2023-05-28T08:50:50;101420.25;;;19.65;100.00
53262;BME280;39658;51.090;-1.786;2023-05-28T08:53:20;101430.09;;;19.74;100.00
53262;BME280;39658;51.090;-1.786;2023-05-28T08:55:47;101442.38;;;19.67;100.00
53262;BME280;39658;51.090;-1.786;2023-05-28T08:58:16;101450.81;;;19.63;100.00
53262;BME280;39658;51.090;-1.786;2023-05-28T09:00:43;101432.78;;;19.84;100.00
53262;BME280;39658;51.090;-1.786;2023-05-28T09:03:10;101439.09;;;20.03;100.00
53262;BME280;39658;51.090;-1.786;2023-05-28T09:05:38;101437.91;;;20.15;100.00
53262;BME280;39658;51.090;-1.786;2023-05-28T09:08:08;101452.09;;;20.25;100.00
53262;BME280;39658;51.090;-1.786;2023-05-28T09:10:36;101458.06;;;20.47;100.00
53262;BME280;39658;51.090;-1.786;2023-05-28T09:13:03;101470.47;;;20.48;100.00
53262;BME280;39658;51.090;-1.786;2023-05-28T09:15:30;101487.31;;;20.58;100.00
53262;BME280;39658;51.090;-1.786;2023-05-28T09:17:59;101482.06;;;20.76;100.00
53262;BME280;39658;51.090;-1.786;2023-05-28T09:20:26;101471.69;;;20.91;100.00
53262;BME280;39658;51.090;-1.786;2023-05-28T09:23:02;101476.53;;;21.06;100.00
53262;BME280;39658;51.090;-1.786;2023-05-28T09:25:35;101464.25;;;21.39;100.00
53262;BME280;39658;51.090;-1.786;2023-05-28T09:28:04;101480.91;;;21.61;100.00
53262;BME280;39658;51.090;-1.786;2023-05-28T09:30:34;101483.66;;;21.69;100.00
53262;BME280;39658;51.090;-1.786;2023-05-28T09:33:01;101482.47;;;21.90;100.00
53262;BME280;39658;51.090;-1.786;2023-05-28T09:35:29;101475.28;;;21.98;100.00
53262;BME280;39658;51.090;-1.786;2023-05-28T09:38:00;101479.94;;;22.14;100.00
53262;BME280;39658;51.090;-1.786;2023-05-28T09:40:27;101471.03;;;22.14;100.00
53262;BME280;39658;51.090;-1.786;2023-05-28T09:42:55;101473.31;;;22.00;100.00
53262;BME280;39658;51.090;-1.786;2023-05-28T09:45:23;101480.66;;;21.98;100.00
53262;BME280;39658;51.090;-1.786;2023-05-28T09:47:51;101479.78;;;22.16;100.00
53262;BME280;39658;51.090;-1.786;2023-05-28T09:50:18;101485.53;;;22.29;100.00
53262;BME280;39658;51.090;-1.786;2023-05-28T09:52:46;101488.19;;;22.47;100.00
53262;BME280;39658;51.090;-1.786;2023-05-28T09:55:14;101480.50;;;22.61;93.25
53262;BME280;39658;51.090;-1.786;2023-05-28T09:57:46;101498.72;;;22.75;85.04
53262;BME280;39658;51.090;-1.786;2023-05-28T10:00:20;101491.91;;;22.97;87.60
53262;BME280;39658;51.090;-1.786;2023-05-28T10:02:55;101496.53;;;22.70;80.01
53262;BME280;39658;51.090;-1.786;2023-05-28T10:05:28;101497.75;;;22.84;79.50
53262;BME280;39658;51.090;-1.786;2023-05-28T10:07:56;101504.06;;;23.09;74.51
53262;BME280;39658;51.090;-1.786;2023-05-28T10:10:26;101497.53;;;23.20;75.94
53262;BME280;39658;51.090;-1.786;2023-05-28T10:12:55;101494.34;;;23.33;74.67
53262;BME280;39658;51.090;-1.786;2023-05-28T10:15:24;101491.66;;;23.50;73.52
53262;BME280;39658;51.090;-1.786;2023-05-28T10:17:52;101496.19;;;23.74;73.75
53262;BME280;39658;51.090;-1.786;2023-05-28T10:20:19;101499.41;;;23.61;72.79
53262;BME280;39658;51.090;-1.786;2023-05-28T10:22:47;101492.69;;;23.65;73.58
53262;BME280;39658;51.090;-1.786;2023-05-28T10:25:15;101491.66;;;23.50;74.98
53262;BME280;39658;51.090;-1.786;2023-05-28T10:27:44;101486.78;;;23.61;80.14
53262;BME280;39658;51.090;-1.786;2023-05-28T10:30:30;101485.59;;;23.72;72.30
53262;BME280;39658;51.090;-1.786;2023-05-28T10:32:57;101486.44;;;23.81;73.85
53262;BME280;39658;51.090;-1.786;2023-05-28T10:35:23;101481.22;;;23.88;77.16
53262;BME280;39658;51.090;-1.786;2023-05-28T10:37:50;101497.06;;;23.91;71.49
53262;BME280;39658;51.090;-1.786;2023-05-28T10:40:28;101486.25;;;24.07;77.77
53262;BME280;39658;51.090;-1.786;2023-05-28T10:42:55;101499.72;;;24.07;61.75
53262;BME280;39658;51.090;-1.786;2023-05-28T10:45:34;101494.50;;;24.14;60.35
53262;BME280;39658;51.090;-1.786;2023-05-28T10:48:01;101500.59;;;23.99;56.89
53262;BME280;39658;51.090;-1.786;2023-05-28T10:50:28;101505.94;;;23.83;59.65
53262;BME280;39658;51.090;-1.786;2023-05-28T10:53:05;101491.66;;;23.74;60.08
53262;BME280;39658;51.090;-1.786;2023-05-28T10:55:48;101483.25;;;23.61;64.55
53262;BME280;39658;51.090;-1.786;2023-05-28T10:58:23;101483.94;;;23.71;69.45
53262;BME280;39658;51.090;-1.786;2023-05-28T11:00:51;101483.06;;;23.95;70.69
53262;BME280;39658;51.090;-1.786;2023-05-28T11:03:38;101490.13;;;23.80;64.50
53262;BME280;39658;51.090;-1.786;2023-05-28T11:06:06;101485.09;;;23.93;65.60
53262;BME280;39658;51.090;-1.786;2023-05-28T11:08:38;101489.28;;;24.12;65.93
53262;BME280;39658;51.090;-1.786;2023-05-28T11:11:05;101487.50;;;24.36;70.98
53262;BME280;39658;51.090;-1.786;2023-05-28T11:13:32;101477.81;;;24.66;76.77
53262;BME280;39658;51.090;-1.786;2023-05-28T11:16:07;101486.38;;;24.78;61.22
53262;BME280;39658;51.090;-1.786;2023-05-28T11:18:34;101484.59;;;24.54;54.51
53262;BME280;39658;51.090;-1.786;2023-05-28T11:21:05;101483.06;;;24.51;59.68
53262;BME280;39658;51.090;-1.786;2023-05-28T11:23:33;101473.00;;;24.45;59.04
53262;BME280;39658;51.090;-1.786;2023-05-28T11:26:00;101473.16;;;24.52;60.92
53262;BME280;39658;51.090;-1.786;2023-05-28T11:28:27;101476.59;;;24.77;57.79
53262;BME280;39658;51.090;-1.786;2023-05-28T11:30:56;101473.66;;;24.87;63.08
53262;BME280;39658;51.090;-1.786;2023-05-28T11:33:27;101471.09;;;24.94;61.73
53262;BME280;39658;51.090;-1.786;2023-05-28T11:36:00;101476.75;;;25.07;65.20
53262;BME280;39658;51.090;-1.786;2023-05-28T11:38:28;101475.84;;;25.15;61.50
53262;BME280;39658;51.090;-1.786;2023-05-28T11:41:01;101463.47;;;25.29;70.09
53262;BME280;39658;51.090;-1.786;2023-05-28T11:43:28;101471.81;;;25.42;68.00
53262;BME280;39658;51.090;-1.786;2023-05-28T11:45:59;101466.97;;;25.37;57.55
53262;BME280;39658;51.090;-1.786;2023-05-28T11:48:28;101467.50;;;25.24;57.39
53262;BME280;39658;51.090;-1.786;2023-05-28T11:50:59;101461.75;;;25.27;60.00
53262;BME280;39658;51.090;-1.786;2023-05-28T11:53:38;101464.28;;;25.06;56.85
53262;BME280;39658;51.090;-1.786;2023-05-28T11:56:05;101467.88;;;25.30;59.49
53262;BME280;39658;51.090;-1.786;2023-05-28T11:58:33;101461.22;;;25.55;62.71
53262;BME280;39658;51.090;-1.786;2023-05-28T12:01:03;101456.19;;;25.90;62.04
53262;BME280;39658;51.090;-1.786;2023-05-28T12:03:31;101461.91;;;26.10;57.07
53262;BME280;39658;51.090;-1.786;2023-05-28T12:05:58;101465.53;;;26.18;61.67
53262;BME280;39658;51.090;-1.786;2023-05-28T12:08:26;101448.28;;;26.04;54.52
53262;BME280;39658;51.090;-1.786;2023-05-28T12:10:53;101444.38;;;26.06;60.45
53262;BME280;39658;51.090;-1.786;2023-05-28T12:13:31;101447.81;;;26.00;56.66
53262;BME280;39658;51.090;-1.786;2023-05-28T12:16:09;101448.94;;;26.21;59.06
53262;BME280;39658;51.090;-1.786;2023-05-28T12:18:40;101453.66;;;25.89;56.17
53262;BME280;39658;51.090;-1.786;2023-05-28T12:21:12;101447.09;;;26.06;54.81
53262;BME280;39658;51.090;-1.786;2023-05-28T12:23:43;101445.78;;;26.17;56.19
53262;BME280;39658;51.090;-1.786;2023-05-28T12:26:10;101443.25;;;26.01;52.50
53262;BME280;39658;51.090;-1.786;2023-05-28T12:28:38;101445.63;;;25.66;56.69
53262;BME280;39658;51.090;-1.786;2023-05-28T12:31:06;101447.22;;;25.37;55.55
53262;BME280;39658;51.090;-1.786;2023-05-28T12:33:34;101447.81;;;25.47;57.13
53262;BME280;39658;51.090;-1.786;2023-05-28T12:36:03;101439.06;;;25.45;57.57
53262;BME280;39658;51.090;-1.786;2023-05-28T12:38:30;101446.06;;;25.54;56.65
53262;BME280;39658;51.090;-1.786;2023-05-28T12:40:57;101435.44;;;25.53;56.37